Time;durP1;ratioP1;P1;durP2;ratioP2;P2;SDS_P1;SDS_P2;PMS_P1;PMS_P2;Temp;Humidity;BMP_temperature;BMP_pressure;BME280_temperature;BME280_humidity;BME280_pressure;Samples;Min_cycle;Max_cycle;Signal;HPM_P1;HPM_P2
2021/01/06 05:44:44;;;;;;;;;;;;;;;2.91;92.62;100181.62;1712040;82;20177;-41
2021/01/06 05:47:13;;;;;;;;;;;;;;;2.95;92.55;100169.64;1672982;85;20213;-42
2021/01/06 05:49:41;;;;;;;;;;;;;;;2.97;92.54;100180.05;1731736;81;20329;-41
2021/01/06 05:52:10;;;;;;;;;;;;;;;3.03;92.71;100179.80;1714606;82;20547;-42
2021/01/06 05:54:50;;;;;;;;;;;;;;;3.06;92.55;100181.17;1723918;82;20424;-46
2021/01/06 05:57:33;;;;;;;;;;;;;;;3.08;92.49;100181.23;1661117;85;20190;-46
2021/01/06 06:00:20;;;;;;;;;;;;;;;3.07;92.34;100189.37;1658034;85;20613;-46
2021/01/06 06:03:00;;;;;;;;;;;;;;;3.07;92.39;100187.21;1661595;85;20300;-46
2021/01/06 06:05:43;;;;;;;;;;;;;;;3.12;92.49;100186.51;1670610;85;20293;-47
2021/01/06 06:08:20;;;;;;;;;;;;;;;3.14;92.31;100193.04;1665351;84;20189;-48
2021/01/06 06:11:25;;;;;;;;;;;;;;;3.16;92.31;100189.65;1664419;85;20194;-43
2021/01/06 06:14:11;;;;;;;;;;;;;;;3.20;92.16;100195.80;1660686;85;20263;-43
2021/01/06 06:17:14;;;;;;;;;;;;;;;3.18;91.97;100192.27;1659623;85;20172;-43
2021/01/06 06:20:05;;;;;;;;;;;;;;;3.17;92.05;100193.98;1665852;85;20222;-44
2021/01/06 06:22:41;;;;;;;;;;;;;;;3.24;92.15;100192.86;1797242;78;20184;-47
2021/01/06 06:25:18;;;;;;;;;;;;;;;3.20;92.01;100200.97;1775763;79;20540;-44
2021/01/06 06:27:59;;;;;;;;;;;;;;;3.14;91.86;100204.25;1770139;80;20493;-43
2021/01/06 06:30:31;;;;;;;;;;;;;;;3.09;91.92;100211.42;1725341;81;20207;-42
2021/01/06 06:32:59;;;;;;;;;;;;;;;3.10;92.30;100208.87;1714847;83;20187;-43
2021/01/06 06:35:36;;;;;;;;;;;;;;;3.15;92.43;100211.17;1712751;83;20294;-42
2021/01/06 06:38:06;;;;;;;;;;;;;;;3.19;92.49;100208.27;1710794;83;20204;-42
2021/01/06 06:40:54;;;;;;;;;;;;;;;3.26;92.59;100208.89;1710287;83;20193;-46
2021/01/06 06:43:45;;;;;;;;;;;;;;;3.31;92.46;100203.44;1715496;83;20185;-46
2021/01/06 06:46:23;;;;;;;;;;;;;;;3.36;92.36;100208.70;1711167;83;20177;-46
2021/01/06 06:49:16;;;;;;;;;;;;;;;3.37;92.13;100203.60;1712567;83;20205;-41
2021/01/06 06:51:57;;;;;;;;;;;;;;;3.42;92.20;100202.02;1710399;83;20222;-42
2021/01/06 06:54:43;;;;;;;;;;;;;;;3.49;92.09;100204.77;1712758;83;20553;-41
2021/01/06 06:57:17;;;;;;;;;;;;;;;3.56;91.97;100211.44;1709397;83;20257;-42
2021/01/06 07:00:13;;;;;;;;;;;;;;;;;;;;;
2021/01/06 07:02:32;;;;;;;;;;;;;;;3.65;91.69;100201.34;1711360;82;20168;-46
2021/01/06 07:05:00;;;;;;;;;;;;;;;3.70;91.49;100201.02;1686088;83;20729;-46
2021/01/06 07:07:43;;;;;;;;;;;;;;;3.75;91.33;100202.44;1709181;83;20451;-42
2021/01/06 07:10:25;;;;;;;;;;;;;;;3.79;91.18;100202.11;1712474;83;20232;-46
2021/01/06 07:12:54;;;;;;;;;;;;;;;3.82;91.00;100203.47;1714823;83;20183;-42
2021/01/06 07:15:33;;;;;;;;;;;;;;;3.82;90.91;100203.47;1711533;83;20247;-42
2021/01/06 07:18:21;;;;;;;;;;;;;;;3.81;90.94;100204.30;1712639;83;20233;-43
2021/01/06 07:20:49;;;;;;;;;;;;;;;3.83;91.01;100210.42;1703128;83;20224;-47
2021/01/06 07:23:19;;;;;;;;;;;;;;;3.80;91.07;100214.20;1668363;85;20192;-44
2021/01/06 07:25:49;;;;;;;;;;;;;;;3.81;91.19;100216.83;1666765;85;20555;-47
2021/01/06 07:28:19;;;;;;;;;;;;;;;3.81;91.21;100226.30;1668397;85;20437;-47
2021/01/06 07:30:49;;;;;;;;;;;;;;;3.81;91.39;100234.94;1669387;85;20192;-42
2021/01/06 07:33:36;;;;;;;;;;;;;;;3.81;91.21;100234.07;1673072;85;20185;-46
2021/01/06 07:36:09;;;;;;;;;;;;;;;3.75;91.14;100232.20;1673806;85;20182;-46
2021/01/06 07:38:37;;;;;;;;;;;;;;;3.67;91.51;100233.30;1674801;85;20178;-47
2021/01/06 07:41:04;;;;;;;;;;;;;;;3.67;92.04;100230.71;1668938;85;20182;-45
2021/01/06 07:43:38;;;;;;;;;;;;;;;3.70;92.35;100237.66;1663992;85;20169;-45
2021/01/06 07:46:14;;;;;;;;;;;;;;;3.71;92.63;100245.88;1668567;85;20267;-45
2021/01/06 07:49:06;;;;;;;;;;;;;;;3.72;92.88;100242.06;1664322;85;20222;-46
2021/01/06 07:51:41;;;;;;;;;;;;;;;3.77;93.05;100238.31;1598092;88;20315;-41
2021/01/06 07:54:12;;;;;;;;;;;;;;;3.80;93.17;100239.67;1596602;89;20508;-41
2021/01/06 07:57:00;;;;;;;;;;;;;;;3.83;93.23;100238.89;1599755;88;20206;-42
2021/01/06 07:59:40;;;;;;;;;;;;;;;3.85;93.37;100235.91;1596097;89;20302;-41
2021/01/06 08:02:20;;;;;;;;;;;;;;;3.88;93.46;100232.09;1595977;89;20308;-40
2021/01/06 08:04:58;;;;;;;;;;;;;;;3.92;93.61;100239.11;1595709;89;20541;-43
2021/01/06 08:07:27;;;;;;;;;;;;;;;3.94;93.59;100240.92;1595289;88;20204;-47
2021/01/06 08:10:00;;;;;;;;;;;;;;;3.96;93.60;100242.25;1589112;89;20555;-47
2021/01/06 08:12:41;;;;;;;;;;;;;;;3.97;93.78;100240.98;1597221;88;20556;-46
2021/01/06 08:15:22;;;;;;;;;;;;;;;4.03;94.00;100242.85;1595175;89;20664;-46
2021/01/06 08:17:59;;;;;;;;;;;;;;;4.08;94.04;100242.98;1597758;89;20223;-46
2021/01/06 08:20:28;;;;;;;;;;;;;;;4.11;93.99;100246.92;1596158;89;20290;-41
2021/01/06 08:23:02;;;;;;;;;;;;;;;4.13;93.91;100238.80;1644346;85;20792;-41
2021/01/06 08:25:32;;;;;;;;;;;;;;;4.12;93.93;100248.28;1684727;84;20195;-42
2021/01/06 08:28:14;;;;;;;;;;;;;;;4.08;93.95;100243.84;1681792;84;20158;-41
2021/01/06 08:30:42;;;;;;;;;;;;;;;4.08;94.24;100238.67;1675664;84;20166;-41
2021/01/06 08:33:13;;;;;;;;;;;;;;;4.10;94.48;100236.11;1677457;84;20194;-41
2021/01/06 08:35:44;;;;;;;;;;;;;;;4.11;94.55;100231.38;1668120;85;20223;-41
2021/01/06 08:38:28;;;;;;;;;;;;;;;4.14;94.79;100238.82;1668798;85;20184;-42
2021/01/06 08:40:56;;;;;;;;;;;;;;;4.18;94.98;100236.77;1602207;87;20293;-40
2021/01/06 08:43:24;;;;;;;;;;;;;;;4.24;95.16;100239.94;1601925;87;20231;-49
2021/01/06 08:45:56;;;;;;;;;;;;;;;4.27;95.23;100236.98;1622372;87;20222;-45
2021/01/06 08:48:27;;;;;;;;;;;;;;;4.32;95.39;100234.93;1606708;87;20197;-46
2021/01/06 08:50:57;;;;;;;;;;;;;;;4.37;95.44;100243.27;1607617;87;20350;-41
2021/01/06 08:53:33;;;;;;;;;;;;;;;4.40;95.48;100239.44;1608191;87;20343;-42
2021/01/06 08:56:07;;;;;;;;;;;;;;;4.43;95.31;100240.83;1611518;87;20194;-40
2021/01/06 08:58:49;;;;;;;;;;;;;;;4.50;95.31;100243.13;1796896;78;20300;-45
2021/01/06 09:01:36;;;;;;;;;;;;;;;4.48;95.38;100243.53;1771911;79;20658;-46
2021/01/06 09:04:27;;;;;;;;;;;;;;;4.51;95.56;100241.87;1774554;79;20196;-44
2021/01/06 09:07:04;;;;;;;;;;;;;;;4.57;95.59;100241.56;1772818;79;20205;-45
2021/01/06 09:09:54;;;;;;;;;;;;;;;4.60;95.52;100240.35;1773121;79;20250;-45
2021/01/06 09:12:41;;;;;;;;;;;;;;;4.64;95.57;100237.88;1776403;79;20186;-45
2021/01/06 09:15:13;;;;;;;;;;;;;;;4.71;95.88;100231.98;1776140;79;20194;-45
2021/01/06 09:17:47;;;;;;;;;;;;;;;4.76;95.80;100232.09;1772612;79;20185;-44
2021/01/06 09:20:17;;;;;;;;;;;;;;;4.79;95.95;100233.44;1754614;80;20254;-45
2021/01/06 09:22:46;;;;;;;;;;;;;;;4.85;95.95;100230.11;1745230;80;20456;-41
2021/01/06 09:25:15;;;;;;;;;;;;;;;4.90;96.04;100229.36;1774759;79;20206;-41
2021/01/06 09:27:45;;;;;;;;;;;;;;;5.00;96.08;100236.93;1743991;80;20315;-42
2021/01/06 09:30:20;;;;;;;;;;;;;;;5.08;95.73;100241.84;1776981;80;20478;-46
2021/01/06 09:32:48;;;;;;;;;;;;;;;5.12;95.43;100242.38;1775381;80;20540;-46
2021/01/06 09:35:27;;;;;;;;;;;;;;;5.17;95.39;100245.08;1780222;80;20385;-41
2021/01/06 09:37:57;;;;;;;;;;;;;;;5.21;95.15;100240.37;1758211;80;20268;-46
2021/01/06 09:40:26;;;;;;;;;;;;;;;5.23;94.91;100236.98;1780219;80;20360;-47
2021/01/06 09:43:00;;;;;;;;;;;;;;;5.25;94.77;100230.53;1776158;80;20171;-42
2021/01/06 09:45:28;;;;;;;;;;;;;;;5.27;94.70;100227.11;1775704;79;20178;-42
2021/01/06 09:47:57;;;;;;;;;;;;;;;5.31;94.77;100221.57;1788281;80;20204;-46
2021/01/06 09:50:28;;;;;;;;;;;;;;;5.40;94.93;100226.09;1774952;80;20213;-46
2021/01/06 09:52:56;;;;;;;;;;;;;;;5.48;95.21;100235.75;1791145;80;20504;-45
2021/01/06 09:55:25;;;;;;;;;;;;;;;5.55;95.13;100240.20;1784843;80;20207;-46
2021/01/06 09:58:07;;;;;;;;;;;;;;;5.59;94.81;100242.45;1771019;80;20454;-42
2021/01/06 10:00:38;;;;;;;;;;;;;;;5.63;94.74;100244.27;1763908;80;20622;-46
